Time;durP1;ratioP1;P1;durP2;ratioP2;P2;SDS_P1;SDS_P2;PMS_P1;PMS_P2;Temp;Humidity;BMP_temperature;BMP_pressure;BME280_temperature;BME280_humidity;BME280_pressure;Samples;Min_cycle;Max_cycle;Signal;HPM_P1;HPM_P2
2021/12/01 00:01:03;;;;;;;0.80;0.80;;;19.90;40.30;;;;;;5001022;28;20454;-66
2021/12/01 00:03:28;;;;;;;0.73;0.73;;;19.90;40.30;;;;;;5000196;28;20709;-67
2021/12/01 00:05:54;;;;;;;0.80;0.80;;;19.90;40.30;;;;;;5004071;28;20605;-67
2021/12/01 00:08:20;;;;;;;0.97;0.87;;;19.90;40.30;;;;;;4999241;28;20231;-67
2021/12/01 00:10:47;;;;;;;1.00;0.90;;;19.90;40.30;;;;;;4998672;28;20330;-67
2021/12/01 00:13:16;;;;;;;0.90;0.90;;;19.90;40.30;;;;;;5002166;28;20462;-67
2021/12/01 00:15:43;;;;;;;0.70;0.70;;;19.90;40.30;;;;;;5001268;28;20528;-66
2021/12/01 00:18:09;;;;;;;0.80;0.80;;;19.90;40.40;;;;;;4997653;28;20446;-66
2021/12/01 00:20:35;;;;;;;0.70;0.60;;;19.90;40.40;;;;;;5001155;28;20425;-66
2021/12/01 00:23:02;;;;;;;0.80;0.70;;;19.90;40.40;;;;;;5001137;28;20939;-67
2021/12/01 00:25:29;;;;;;;0.80;0.70;;;19.90;40.50;;;;;;5000579;28;20281;-67
2021/12/01 00:27:55;;;;;;;1.10;0.80;;;19.90;40.40;;;;;;5001009;28;20536;-67
2021/12/01 00:30:22;;;;;;;0.80;0.80;;;19.90;40.50;;;;;;5002121;28;20540;-67
2021/12/01 00:32:48;;;;;;;0.80;0.80;;;19.90;40.30;;;;;;5002560;28;20472;-67
2021/12/01 00:35:14;;;;;;;0.70;0.70;;;19.90;40.40;;;;;;4997855;28;20442;-67
2021/12/01 00:37:40;;;;;;;0.90;0.80;;;19.90;40.30;;;;;;4989014;28;20584;-67
2021/12/01 00:40:09;;;;;;;0.70;0.60;;;19.90;40.40;;;;;;4999297;28;20446;-65
2021/12/01 00:42:35;;;;;;;0.80;0.77;;;19.90;40.30;;;;;;5000973;28;20993;-66
2021/12/01 00:45:07;;;;;;;0.73;0.73;;;19.90;40.40;;;;;;4997346;28;20545;-66
2021/12/01 00:47:49;;;;;;;0.83;0.83;;;19.90;40.40;;;;;;5000717;28;20220;-66
2021/12/01 00:50:25;;;;;;;2.20;0.70;;;19.90;40.30;;;;;;5000337;28;20445;-66
2021/12/01 00:52:53;;;;;;;0.93;0.70;;;19.90;40.30;;;;;;4999325;28;20447;-67
2021/12/01 00:55:19;;;;;;;0.80;0.80;;;19.90;40.40;;;;;;5000529;28;20453;-66
2021/12/01 00:57:45;;;;;;;0.70;0.70;;;19.90;40.40;;;;;;4998328;28;20448;-67
2021/12/01 01:00:12;;;;;;;0.90;0.80;;;19.90;40.50;;;;;;5000327;28;20833;-67
2021/12/01 01:02:38;;;;;;;0.87;0.70;;;19.90;40.50;;;;;;5000024;28;20224;-67
2021/12/01 01:05:06;;;;;;;0.70;0.70;;;19.90;40.40;;;;;;5001958;28;20906;-67
2021/12/01 01:07:33;;;;;;;1.10;0.90;;;19.90;40.50;;;;;;5001175;28;20691;-67
2021/12/01 01:10:05;;;;;;;0.80;0.80;;;19.90;40.50;;;;;;4999962;28;20433;-67
2021/12/01 01:18:05;;;;;;;0.70;0.60;;;19.90;40.50;;;;;;5000230;28;20464;-67
2021/12/01 01:20:32;;;;;;;0.80;0.70;;;19.90;40.50;;;;;;4998111;28;20500;-67
2021/12/01 01:22:58;;;;;;;0.90;0.70;;;19.90;40.50;;;;;;4997030;28;20461;-67
2021/12/01 01:25:24;;;;;;;0.80;0.70;;;19.90;40.50;;;;;;4999925;28;20454;-67
2021/12/01 01:27:49;;;;;;;0.70;0.70;;;19.90;40.50;;;;;;4987614;28;20453;-67
2021/12/01 01:30:15;;;;;;;0.77;0.77;;;19.90;40.50;;;;;;4993722;28;20252;-67
2021/12/01 01:32:41;;;;;;;0.70;0.70;;;19.90;40.50;;;;;;5001897;28;20311;-66
2021/12/01 01:35:07;;;;;;;0.80;0.70;;;19.90;40.50;;;;;;4999050;28;20262;-67
2021/12/01 01:37:33;;;;;;;1.10;0.90;;;19.80;40.40;;;;;;4998862;28;20220;-67
2021/12/01 01:39:58;;;;;;;0.90;0.70;;;19.80;40.40;;;;;;4995159;28;20409;-67
2021/12/01 01:42:24;;;;;;;0.90;0.70;;;19.90;40.50;;;;;;4995526;28;20726;-67
2021/12/01 01:44:49;;;;;;;0.90;0.70;;;19.90;40.50;;;;;;4995726;28;20697;-66
2021/12/01 01:47:15;;;;;;;0.73;0.70;;;19.80;40.40;;;;;;5000342;28;20260;-67
2021/12/01 01:49:51;;;;;;;0.80;0.70;;;19.80;40.50;;;;;;4997625;28;20216;-67
2021/12/01 01:52:17;;;;;;;0.73;0.60;;;19.80;40.30;;;;;;5000254;28;20229;-67
2021/12/01 01:54:43;;;;;;;0.90;0.70;;;19.80;40.50;;;;;;4999861;28;20508;-67
2021/12/01 01:57:08;;;;;;;1.33;0.77;;;19.90;40.50;;;;;;4988476;28;20228;-66
2021/12/01 01:59:34;;;;;;;0.60;0.50;;;19.80;40.50;;;;;;5001088;28;20223;-67
2021/12/01 02:02:01;;;;;;;1.00;0.70;;;19.90;40.50;;;;;;4995062;28;20255;-67
2021/12/01 02:04:32;;;;;;;1.23;0.80;;;19.80;40.50;;;;;;4997633;28;20829;-67
2021/12/01 02:06:58;;;;;;;0.87;0.70;;;19.80;40.40;;;;;;4999175;28;20442;-67
2021/12/01 02:09:23;;;;;;;0.70;0.70;;;19.80;40.40;;;;;;5004770;28;21049;-67
2021/12/01 02:11:52;;;;;;;0.90;0.80;;;19.80;40.50;;;;;;5000736;28;20300;-67
2021/12/01 02:14:18;;;;;;;0.90;0.70;;;19.80;40.40;;;;;;5002254;28;20224;-67
2021/12/01 02:16:44;;;;;;;0.80;0.80;;;19.80;40.50;;;;;;5001097;28;20454;-67
2021/12/01 02:19:10;;;;;;;0.70;0.70;;;19.80;40.40;;;;;;5002024;28;20686;-66
2021/12/01 02:21:36;;;;;;;0.70;0.60;;;19.80;40.50;;;;;;5000674;28;20477;-67
2021/12/01 02:24:05;;;;;;;1.23;0.70;;;19.80;40.50;;;;;;5007100;28;20282;-66
2021/12/01 02:26:34;;;;;;;0.80;0.70;;;19.80;41.20;;;;;;5004065;28;20303;-67
2021/12/01 02:29:03;;;;;;;0.90;0.73;;;19.80;40.40;;;;;;4999217;28;20443;-66
2021/12/01 02:31:33;;;;;;;1.13;0.70;;;19.80;40.50;;;;;;5002240;28;20453;-67
2021/12/01 02:34:00;;;;;;;0.67;0.60;;;19.80;40.50;;;;;;5003363;28;20501;-67
2021/12/01 02:36:26;;;;;;;0.80;0.80;;;19.80;40.50;;;;;;4999085;28;20446;-67
2021/12/01 02:38:51;;;;;;;1.00;0.73;;;19.80;40.50;;;;;;5001834;28;20808;-67
2021/12/01 02:41:27;;;;;;;1.00;0.70;;;19.80;40.50;;;;;;5004965;28;20695;-67
2021/12/01 02:43:53;;;;;;;0.80;0.70;;;19.80;40.40;;;;;;5003541;28;20301;-67
2021/12/01 02:46:18;;;;;;;0.70;0.63;;;19.80;40.40;;;;;;5001458;28;20496;-67
2021/12/01 02:48:45;;;;;;;0.70;0.70;;;19.80;40.40;;;;;;5000853;28;20275;-67
2021/12/01 02:51:12;;;;;;;0.77;0.70;;;19.80;40.40;;;;;;5001032;28;20231;-67
2021/12/01 02:53:39;;;;;;;0.70;0.67;;;19.90;40.60;;;;;;5001257;28;20478;-67
2021/12/01 02:56:06;;;;;;;0.80;0.70;;;19.80;40.50;;;;;;5001636;28;20442;-67
2021/12/01 02:58:33;;;;;;;0.80;0.70;;;19.80;40.50;;;;;;4998659;28;20481;-67
2021/12/01 03:01:05;;;;;;;0.70;0.60;;;19.80;40.50;;;;;;5006750;28;20572;-67
2021/12/01 03:03:31;;;;;;;0.73;0.60;;;19.80;40.50;;;;;;5000878;28;20453;-67
2021/12/01 03:05:57;;;;;;;1.33;0.60;;;19.80;40.50;;;;;;4997421;28;20517;-67
2021/12/01 03:08:23;;;;;;;0.80;0.70;;;19.80;40.50;;;;;;5004393;28;20417;-67
2021/12/01 03:10:51;;;;;;;0.90;0.70;;;19.90;40.60;;;;;;4999970;28;20668;-67
2021/12/01 03:13:19;;;;;;;1.10;0.60;;;19.80;40.50;;;;;;4999071;28;20518;-67
2021/12/01 03:15:45;;;;;;;0.70;0.67;;;19.80;40.50;;;;;;5005621;28;20527;-67
2021/12/01 03:18:12;;;;;;;0.80;0.70;;;19.80;40.50;;;;;;5001331;28;20452;-67
2021/12/01 03:20:38;;;;;;;2.10;0.70;;;19.80;40.50;;;;;;5003889;28;20302;-67
2021/12/01 03:23:05;;;;;;;0.80;0.80;;;19.80;40.50;;;;;;4998012;28;20512;-67
2021/12/01 03:25:31;;;;;;;0.73;0.60;;;19.80;40.50;;;;;;5001468;28;20270;-67
2021/12/01 03:27:57;;;;;;;0.70;0.70;;;19.80;40.40;;;;;;5001262;28;20442;-67
2021/12/01 03:30:23;;;;;;;0.87;0.70;;;19.80;40.50;;;;;;5002990;28;20928;-67
2021/12/01 03:32:49;;;;;;;0.80;0.70;;;19.80;40.40;;;;;;5001143;28;20239;-67
2021/12/01 03:35:15;;;;;;;1.00;0.80;;;19.80;40.50;;;;;;5003549;28;20219;-67
2021/12/01 03:37:44;;;;;;;0.70;0.67;;;19.80;40.50;;;;;;5004620;28;20450;-67
2021/12/01 03:40:12;;;;;;;0.70;0.70;;;19.80;40.50;;;;;;4999016;28;20452;-67
2021/12/01 03:42:38;;;;;;;0.80;0.70;;;19.80;40.50;;;;;;4999072;28;20493;-67
2021/12/01 03:45:05;;;;;;;0.70;0.70;;;19.80;40.50;;;;;;5002246;28;20420;-66
2021/12/01 03:47:32;;;;;;;0.80;0.70;;;19.80;40.50;;;;;;5001442;28;20910;-67
2021/12/01 03:49:57;;;;;;;0.80;0.70;;;19.80;40.40;;;;;;4998408;28;20442;-67
2021/12/01 03:52:24;;;;;;;1.20;0.93;;;19.80;40.50;;;;;;5000318;28;20484;-67
2021/12/01 03:54:52;;;;;;;0.80;0.70;;;19.80;40.50;;;;;;4998156;28;20251;-67
2021/12/01 03:57:18;;;;;;;0.80;0.80;;;19.80;40.50;;;;;;4999415;28;20450;-67
2021/12/01 03:59:44;;;;;;;0.80;0.70;;;19.80;40.50;;;;;;5001707;28;20465;-67
2021/12/01 04:02:10;;;;;;;2.00;0.80;;;19.80;40.50;;;;;;5002057;28;20950;-67
2021/12/01 04:04:36;;;;;;;0.70;0.60;;;19.80;40.50;;;;;;5000241;28;20298;-67
2021/12/01 04:07:02;;;;;;;0.67;0.60;;;19.80;40.50;;;;;;5000560;28;21116;-67
2021/12/01 04:09:29;;;;;;;0.70;0.70;;;19.80;40.50;;;;;;4998492;28;20451;-67
2021/12/01 04:11:55;;;;;;;1.20;0.70;;;19.80;40.50;;;;;;4988066;28;20793;-67
2021/12/01 04:14:21;;;;;;;0.70;0.70;;;19.80;40.50;;;;;;5001295;28;20445;-67
2021/12/01 04:16:47;;;;;;;0.70;0.70;;;19.80;40.50;;;;;;5003775;28;20216;-67
2021/12/01 04:19:12;;;;;;;0.90;0.70;;;19.80;40.40;;;;;;4999399;28;20221;-67
2021/12/01 04:21:39;;;;;;;0.70;0.60;;;19.80;40.40;;;;;;4998951;28;20488;-67
2021/12/01 04:24:05;;;;;;;0.80;0.67;;;19.80;40.50;;;;;;4998286;28;20231;-67
2021/12/01 04:26:33;;;;;;;0.73;0.60;;;19.80;40.50;;;;;;4997361;28;20445;-67
2021/12/01 04:29:00;;;;;;;0.90;0.70;;;19.80;40.40;;;;;;5003320;28;20416;-67
2021/12/01 04:31:29;;;;;;;1.33;0.70;;;19.80;40.40;;;;;;4997622;28;20449;-67
2021/12/01 04:33:55;;;;;;;0.80;0.60;;;19.80;40.40;;;;;;5001736;28;20525;-67
2021/12/01 04:36:21;;;;;;;0.70;0.70;;;19.80;40.30;;;;;;4998247;28;21009;-67
2021/12/01 04:38:47;;;;;;;0.80;0.77;;;19.80;40.50;;;;;;5003263;28;20574;-67
2021/12/01 04:41:14;;;;;;;0.83;0.80;;;19.80;40.50;;;;;;5000312;28;20886;-67
2021/12/01 04:43:40;;;;;;;1.47;0.70;;;19.80;40.40;;;;;;5000800;28;20223;-67
2021/12/01 04:46:07;;;;;;;1.00;0.80;;;19.80;40.40;;;;;;5001926;28;20464;-67
2021/12/01 04:48:33;;;;;;;0.80;0.70;;;19.80;40.40;;;;;;5000422;28;20449;-67
2021/12/01 04:51:00;;;;;;;0.77;0.77;;;19.80;40.50;;;;;;4998266;28;20465;-67
2021/12/01 04:53:27;;;;;;;1.00;0.90;;;19.80;40.40;;;;;;4993435;28;20469;-67
2021/12/01 04:55:54;;;;;;;0.80;0.70;;;19.80;40.40;;;;;;4998675;28;20446;-67
2021/12/01 04:58:20;;;;;;;0.73;0.70;;;19.80;40.40;;;;;;5002094;28;20427;-67
2021/12/01 05:00:45;;;;;;;0.90;0.80;;;19.80;40.30;;;;;;4996878;28;20454;-67
2021/12/01 05:03:11;;;;;;;0.70;0.60;;;19.80;40.30;;;;;;4993777;28;20501;-67
2021/12/01 05:05:37;;;;;;;0.80;0.70;;;19.80;40.40;;;;;;5004244;28;20833;-67
2021/12/01 05:08:03;;;;;;;0.63;0.63;;;19.80;40.40;;;;;;4998028;28;20307;-67
2021/12/01 05:10:29;;;;;;;0.80;0.80;;;19.80;40.30;;;;;;4996808;28;20702;-67
2021/12/01 05:12:55;;;;;;;0.80;0.80;;;19.80;40.40;;;;;;5000917;28;20473;-67
2021/12/01 05:15:20;;;;;;;1.00;0.90;;;19.80;40.30;;;;;;4997659;28;20212;-67
2021/12/01 05:17:46;;;;;;;0.80;0.80;;;19.80;40.30;;;;;;4998701;28;20220;-67
2021/12/01 05:20:12;;;;;;;0.80;0.80;;;19.80;40.30;;;;;;4997153;28;20217;-67
2021/12/01 05:22:38;;;;;;;0.80;0.70;;;19.80;40.30;;;;;;4999623;28;20228;-67
2021/12/01 05:25:05;;;;;;;0.60;0.60;;;19.80;40.20;;;;;;4995838;28;20696;-67
2021/12/01 05:27:31;;;;;;;0.80;0.70;;;19.80;40.20;;;;;;4997290;28;20445;-67
2021/12/01 05:29:56;;;;;;;0.70;0.63;;;19.90;40.30;;;;;;4999319;28;20421;-64
2021/12/01 05:32:22;;;;;;;0.80;0.70;;;19.90;40.30;;;;;;4999341;28;20583;-69
2021/12/01 05:34:48;;;;;;;0.60;0.60;;;19.90;40.30;;;;;;4998455;28;20648;-66
2021/12/01 05:37:14;;;;;;;0.90;0.80;;;19.90;40.30;;;;;;4996394;28;20224;-66
2021/12/01 05:39:41;;;;;;;0.70;0.60;;;19.90;40.20;;;;;;5002141;28;20458;-67
2021/12/01 05:42:08;;;;;;;0.70;0.70;;;19.90;40.20;;;;;;4998562;28;20274;-67
2021/12/01 05:44:34;;;;;;;0.80;0.67;;;19.90;40.10;;;;;;4984666;28;20492;-67
2021/12/01 05:47:01;;;;;;;0.70;0.60;;;20.00;40.20;;;;;;4999850;28;20465;-67
2021/12/01 05:49:26;;;;;;;0.80;0.80;;;20.00;40.10;;;;;;5003054;28;20444;-67
2021/12/01 05:51:53;;;;;;;0.73;0.70;;;20.00;39.90;;;;;;5005253;28;20449;-67
2021/12/01 05:54:19;;;;;;;0.70;0.70;;;20.10;40.00;;;;;;5001846;28;20235;-67
2021/12/01 05:56:44;;;;;;;0.93;0.70;;;20.10;39.90;;;;;;5003702;28;20537;-67
2021/12/01 05:59:10;;;;;;;0.80;0.80;;;20.10;39.90;;;;;;5003072;28;20503;-66
2021/12/01 06:01:36;;;;;;;1.50;0.90;;;20.10;39.80;;;;;;5000231;28;20216;-66
2021/12/01 06:04:02;;;;;;;0.70;0.63;;;20.10;39.90;;;;;;5003848;28;20219;-66
2021/12/01 06:06:28;;;;;;;0.90;0.70;;;20.10;39.90;;;;;;5005663;28;20229;-67
2021/12/01 06:08:55;;;;;;;0.70;0.63;;;20.10;40.70;;;;;;5004127;28;20230;-67
2021/12/01 06:11:21;;;;;;;0.70;0.60;;;20.10;39.90;;;;;;4999898;28;20465;-67
2021/12/01 06:13:48;;;;;;;1.93;0.70;;;20.10;39.90;;;;;;5009249;28;21126;-67
2021/12/01 06:16:14;;;;;;;0.80;0.70;;;20.10;40.00;;;;;;5006477;28;20248;-67
2021/12/01 06:18:40;;;;;;;0.70;0.60;;;20.10;40.00;;;;;;5003791;28;20441;-66
2021/12/01 06:21:05;;;;;;;0.70;0.60;;;20.10;40.00;;;;;;5005682;28;20275;-67
2021/12/01 06:23:31;;;;;;;0.60;0.60;;;20.10;40.00;;;;;;5003144;28;20223;-67
2021/12/01 06:25:57;;;;;;;0.80;0.80;;;20.10;40.00;;;;;;5004595;28;20319;-67
2021/12/01 06:28:22;;;;;;;1.60;0.80;;;20.10;40.00;;;;;;4996307;28;20220;-65
2021/12/01 06:30:51;;;;;;;1.00;0.90;;;20.10;40.00;;;;;;5003589;28;20234;-66
2021/12/01 06:33:17;;;;;;;1.87;0.70;;;20.10;40.00;;;;;;5003486;28;20282;-68
2021/12/01 06:35:48;;;;;;;0.87;0.87;;;20.10;40.00;;;;;;5006688;28;20529;-66
2021/12/01 06:38:14;;;;;;;0.80;0.70;;;20.10;40.00;;;;;;5000946;28;20254;-67
2021/12/01 06:40:39;;;;;;;3.33;0.90;;;20.10;40.00;;;;;;4999096;28;20462;-68
2021/12/01 06:43:05;;;;;;;0.97;0.77;;;20.10;39.90;;;;;;5002228;28;20217;-68
2021/12/01 06:45:31;;;;;;;0.73;0.70;;;20.10;40.70;;;;;;5000049;28;20227;-69
2021/12/01 06:47:56;;;;;;;1.30;0.77;;;20.10;40.00;;;;;;5001344;28;20366;-68
2021/12/01 06:50:23;;;;;;;0.97;0.73;;;20.10;40.00;;;;;;5003144;28;21840;-67
2021/12/01 06:52:48;;;;;;;0.80;0.70;;;20.10;40.00;;;;;;5003859;28;20306;-68
2021/12/01 06:55:14;;;;;;;1.10;0.80;;;20.10;40.00;;;;;;5002443;28;20485;-68
2021/12/01 06:57:40;;;;;;;1.47;0.70;;;20.10;40.00;;;;;;4986385;28;20585;-67
2021/12/01 07:00:10;;;;;;;0.80;0.70;;;20.10;40.00;;;;;;5001348;28;20445;-67
2021/12/01 07:02:36;;;;;;;0.80;0.70;;;20.10;40.00;;;;;;5006740;28;20694;-68
2021/12/01 07:05:02;;;;;;;0.90;0.80;;;20.10;40.00;;;;;;4998440;28;20541;-68
2021/12/01 07:07:28;;;;;;;1.60;0.80;;;20.10;40.00;;;;;;5000154;28;20224;-68
2021/12/01 07:09:54;;;;;;;1.03;0.80;;;20.10;40.00;;;;;;5001600;28;20499;-68
2021/12/01 07:12:20;;;;;;;1.10;0.70;;;20.10;40.00;;;;;;5001733;28;20311;-68
2021/12/01 07:14:46;;;;;;;1.00;0.70;;;20.10;40.10;;;;;;5003086;28;20855;-68
2021/12/01 07:17:12;;;;;;;0.93;0.70;;;20.10;40.10;;;;;;5000903;28;20223;-68
2021/12/01 07:19:37;;;;;;;0.80;0.70;;;20.10;40.00;;;;;;4999823;28;20283;-68
2021/12/01 07:22:03;;;;;;;1.33;0.90;;;20.10;40.00;;;;;;5000578;28;20247;-64
2021/12/01 07:24:29;;;;;;;0.70;0.63;;;20.10;40.10;;;;;;4997593;28;20219;-64
2021/12/01 07:26:55;;;;;;;1.07;0.80;;;20.10;40.10;;;;;;5000609;28;20235;-65
2021/12/01 07:29:25;;;;;;;1.63;0.80;;;20.10;40.10;;;;;;5000275;28;20507;-64
2021/12/01 07:31:51;;;;;;;0.90;0.80;;;20.10;40.10;;;;;;4998866;28;20456;-65
2021/12/01 07:34:17;;;;;;;3.53;1.00;;;20.10;40.10;;;;;;4999667;28;20425;-64
2021/12/01 07:36:42;;;;;;;1.00;0.80;;;20.10;40.10;;;;;;5000146;28;20796;-64
2021/12/01 07:39:08;;;;;;;0.80;0.80;;;20.10;40.00;;;;;;4997489;28;20224;-67
2021/12/01 07:41:33;;;;;;;0.90;0.70;;;20.10;40.10;;;;;;5005773;28;20266;-62
2021/12/01 07:43:59;;;;;;;1.43;0.90;;;20.10;40.00;;;;;;4999969;28;20575;-62
2021/12/01 07:46:25;;;;;;;0.70;0.70;;;20.10;40.00;;;;;;5001005;28;20216;-67
2021/12/01 07:48:51;;;;;;;0.80;0.70;;;20.10;40.00;;;;;;4995157;28;20233;-67
2021/12/01 07:51:16;;;;;;;0.93;0.80;;;20.10;40.10;;;;;;4999635;28;20262;-68
2021/12/01 07:53:43;;;;;;;3.87;0.63;;;20.10;40.00;;;;;;5002147;28;20239;-68
2021/12/01 07:56:08;;;;;;;1.50;0.77;;;20.10;40.00;;;;;;4998865;28;20216;-68
2021/12/01 07:58:34;;;;;;;1.00;0.90;;;20.10;40.00;;;;;;5000785;28;20420;-68
2021/12/01 08:01:00;;;;;;;0.70;0.70;;;20.10;40.00;;;;;;5000349;28;20968;-68
2021/12/01 08:03:25;;;;;;;1.60;0.80;;;20.10;40.00;;;;;;4999835;28;20228;-67
2021/12/01 08:05:51;;;;;;;0.70;0.70;;;20.10;40.00;;;;;;4999242;28;20334;-68
2021/12/01 08:08:17;;;;;;;1.00;0.90;;;20.10;40.00;;;;;;5002034;28;20275;-67
2021/12/01 08:10:42;;;;;;;0.90;0.80;;;20.10;40.00;;;;;;5002609;28;20754;-68
2021/12/01 08:13:09;;;;;;;0.87;0.80;;;20.20;40.10;;;;;;5001589;28;20239;-67
2021/12/01 08:15:35;;;;;;;2.17;0.70;;;20.10;40.00;;;;;;5002751;28;20227;-68
2021/12/01 08:18:01;;;;;;;0.80;0.73;;;20.10;40.00;;;;;;5000865;28;20450;-68
2021/12/01 08:20:26;;;;;;;6.13;1.73;;;20.10;40.00;;;;;;5000331;28;20219;-67
2021/12/01 08:22:54;;;;;;;2.10;0.80;;;20.10;40.00;;;;;;4998014;28;20974;-68
2021/12/01 08:25:20;;;;;;;10.53;1.73;;;20.10;40.00;;;;;;4997055;28;20228;-68
2021/12/01 08:27:45;;;;;;;0.87;0.77;;;20.10;40.00;;;;;;5001262;28;20452;-67
2021/12/01 08:30:12;;;;;;;0.80;0.60;;;20.10;40.00;;;;;;5000433;28;20216;-67
2021/12/01 08:32:38;;;;;;;0.70;0.60;;;20.10;40.00;;;;;;5003505;28;20231;-67
2021/12/01 08:35:04;;;;;;;1.10;0.70;;;20.10;40.00;;;;;;5001315;28;21007;-67
2021/12/01 08:37:30;;;;;;;0.80;0.70;;;20.10;40.00;;;;;;5000539;28;20231;-68
2021/12/01 08:39:55;;;;;;;0.70;0.60;;;20.10;40.00;;;;;;4998807;28;20458;-67
2021/12/01 08:42:23;;;;;;;0.80;0.63;;;20.10;40.00;;;;;;4996794;28;20304;-68
2021/12/01 08:44:51;;;;;;;0.80;0.60;;;20.10;40.00;;;;;;4998696;28;20223;-67
2021/12/01 08:47:19;;;;;;;1.33;0.70;;;20.10;40.00;;;;;;4997993;28;20600;-67
2021/12/01 08:49:45;;;;;;;0.80;0.67;;;20.10;40.00;;;;;;4999645;28;21021;-67
2021/12/01 08:52:11;;;;;;;2.90;0.70;;;20.10;40.00;;;;;;4998682;28;20492;-67
2021/12/01 08:54:37;;;;;;;0.60;0.50;;;20.10;40.00;;;;;;4998375;28;20216;-67
2021/12/01 08:57:03;;;;;;;1.00;0.60;;;20.10;40.10;;;;;;4997793;28;20454;-67
2021/12/01 08:59:30;;;;;;;0.80;0.60;;;20.10;40.00;;;;;;4997777;28;20460;-68
2021/12/01 09:01:56;;;;;;;0.70;0.60;;;20.10;40.00;;;;;;4995991;28;20454;-67
2021/12/01 09:04:24;;;;;;;0.90;0.60;;;20.10;40.00;;;;;;4999250;28;20464;-67
2021/12/01 09:06:50;;;;;;;1.00;0.60;;;20.10;40.00;;;;;;4996439;28;20256;-67
2021/12/01 09:09:19;;;;;;;0.90;0.73;;;20.10;40.00;;;;;;4998892;28;20472;-67
2021/12/01 09:11:50;;;;;;;0.70;0.60;;;20.10;40.00;;;;;;4995495;28;20238;-66
2021/12/01 09:14:16;;;;;;;1.17;0.87;;;20.10;40.90;;;;;;4998662;28;20461;-66
2021/12/01 09:16:46;;;;;;;0.70;0.60;;;20.10;40.00;;;;;;5003682;28;20876;-67
2021/12/01 09:19:12;;;;;;;0.80;0.60;;;20.10;40.00;;;;;;5001297;28;20446;-68
2021/12/01 09:21:38;;;;;;;0.90;0.60;;;20.10;40.00;;;;;;5006595;28;20469;-68
2021/12/01 09:24:04;;;;;;;0.67;0.50;;;20.10;40.00;;;;;;4983677;28;20442;-67
2021/12/01 09:26:31;;;;;;;0.60;0.50;;;20.10;40.00;;;;;;4998176;28;20496;-67
2021/12/01 09:28:57;;;;;;;1.10;0.60;;;20.10;40.00;;;;;;5004409;28;20220;-67
2021/12/01 09:31:23;;;;;;;0.70;0.60;;;20.10;40.00;;;;;;5005130;28;20464;-67
2021/12/01 09:33:49;;;;;;;0.67;0.57;;;20.10;40.00;;;;;;5002652;28;20713;-66
2021/12/01 09:36:15;;;;;;;2.13;0.60;;;20.10;40.00;;;;;;5003140;28;20234;-67
2021/12/01 09:38:42;;;;;;;0.60;0.60;;;20.10;40.00;;;;;;5006155;28;20473;-67
2021/12/01 09:41:08;;;;;;;0.83;0.60;;;20.10;40.00;;;;;;5002955;28;20878;-67
2021/12/01 09:43:34;;;;;;;0.67;0.60;;;20.10;40.00;;;;;;5002534;28;20868;-67
2021/12/01 09:46:04;;;;;;;0.70;0.50;;;20.10;39.90;;;;;;5003485;28;20529;-67
2021/12/01 09:48:35;;;;;;;1.10;0.60;;;20.10;39.90;;;;;;5005811;28;20437;-67
2021/12/01 09:51:01;;;;;;;0.60;0.53;;;20.10;39.90;;;;;;5003162;28;20442;-68
2021/12/01 09:53:27;;;;;;;0.60;0.50;;;20.10;40.00;;;;;;5006617;28;20473;-67
2021/12/01 09:55:52;;;;;;;1.37;0.60;;;20.10;40.00;;;;;;5003058;28;20680;-67
2021/12/01 09:58:23;;;;;;;1.87;0.50;;;20.10;39.90;;;;;;5000872;28;20591;-67
2021/12/01 10:00:54;;;;;;;0.60;0.60;;;20.10;39.90;;;;;;5002907;28;20224;-67
2021/12/01 10:03:19;;;;;;;0.83;0.50;;;20.10;40.00;;;;;;5003487;28;20456;-67
2021/12/01 10:08:44;;;;;;;0.60;0.57;;;20.10;39.90;;;;;;4999125;28;20266;-67
2021/12/01 10:11:12;;;;;;;0.80;0.60;;;20.10;39.90;;;;;;5001506;28;20425;-67
2021/12/01 10:13:45;;;;;;;0.77;0.50;;;20.10;40.00;;;;;;5002148;28;20511;-67
2021/12/01 10:16:13;;;;;;;0.70;0.60;;;20.10;40.00;;;;;;5001355;28;20485;-67
2021/12/01 10:18:47;;;;;;;0.60;0.50;;;20.10;40.00;;;;;;5002731;28;20508;-67
2021/12/01 10:21:37;;;;;;;0.70;0.60;;;20.10;39.90;;;;;;5005455;28;20445;-68
2021/12/01 10:24:19;;;;;;;0.60;0.50;;;20.10;40.00;;;;;;5003567;28;20542;-67
2021/12/01 10:26:51;;;;;;;0.70;0.60;;;20.10;39.90;;;;;;5000103;28;20436;-67
2021/12/01 10:29:20;;;;;;;0.60;0.50;;;20.10;40.00;;;;;;5000729;28;20486;-68
2021/12/01 10:31:59;;;;;;;0.60;0.50;;;20.00;39.90;;;;;;5005121;28;20500;-67
2021/12/01 10:34:40;;;;;;;0.60;0.47;;;20.00;39.90;;;;;;4999973;28;20458;-68
2021/12/01 10:37:08;;;;;;;0.80;0.60;;;20.00;39.80;;;;;;5004772;28;20453;-68
2021/12/01 10:39:34;;;;;;;0.73;0.60;;;20.00;39.80;;;;;;5002498;28;20462;-67
2021/12/01 10:42:09;;;;;;;0.70;0.50;;;20.10;40.00;;;;;;5002351;28;20416;-68
2021/12/01 10:44:36;;;;;;;0.70;0.60;;;20.00;39.80;;;;;;4991477;28;20778;-68
2021/12/01 10:47:11;;;;;;;0.60;0.50;;;20.00;40.70;;;;;;4998138;28;20421;-67
2021/12/01 10:49:40;;;;;;;0.70;0.70;;;20.00;39.90;;;;;;5001479;28;20571;-68
2021/12/01 10:52:12;;;;;;;0.60;0.50;;;20.00;39.90;;;;;;4991207;28;20460;-68
2021/12/01 10:54:38;;;;;;;0.70;0.50;;;20.00;39.90;;;;;;4998965;28;20810;-68
2021/12/01 10:57:21;;;;;;;0.70;0.53;;;20.00;40.00;;;;;;5002763;28;20507;-67
2021/12/01 10:59:49;;;;;;;0.50;0.50;;;20.00;39.90;;;;;;5000511;28;20229;-68
2021/12/01 11:02:16;;;;;;;0.60;0.50;;;20.00;40.00;;;;;;5001035;28;20433;-68
2021/12/01 11:04:43;;;;;;;0.70;0.60;;;20.00;40.00;;;;;;5002596;28;20440;-68
2021/12/01 11:07:27;;;;;;;0.60;0.47;;;20.00;40.00;;;;;;5001701;28;20952;-67
2021/12/01 11:10:18;;;;;;;1.53;0.50;;;20.00;40.00;;;;;;4999479;28;20449;-67
2021/12/01 11:12:58;;;;;;;0.70;0.50;;;20.00;40.00;;;;;;5004333;28;20523;-67
2021/12/01 11:15:27;;;;;;;0.60;0.40;;;20.00;40.00;;;;;;5001326;28;20476;-67
2021/12/01 11:17:55;;;;;;;0.60;0.50;;;20.00;40.00;;;;;;4995291;28;20464;-67
2021/12/01 11:20:43;;;;;;;0.50;0.40;;;20.00;40.00;;;;;;5004819;28;20485;-67
2021/12/01 11:23:33;;;;;;;0.60;0.50;;;20.00;39.90;;;;;;5000777;28;20458;-67
2021/12/01 11:26:08;;;;;;;0.70;0.50;;;20.00;40.00;;;;;;5000699;28;20542;-67
2021/12/01 11:28:41;;;;;;;0.60;0.40;;;20.00;40.00;;;;;;5000285;28;20954;-67
2021/12/01 11:31:17;;;;;;;0.60;0.50;;;20.00;40.00;;;;;;5001282;28;20409;-67
2021/12/01 11:33:44;;;;;;;0.97;0.50;;;20.00;40.00;;;;;;5000959;28;20483;-67
2021/12/01 11:36:14;;;;;;;0.60;0.40;;;20.00;40.00;;;;;;5002018;28;20436;-67
2021/12/01 11:38:41;;;;;;;0.70;0.60;;;20.00;40.00;;;;;;5000620;28;20447;-67
2021/12/01 11:41:08;;;;;;;0.70;0.50;;;20.00;40.00;;;;;;5000218;28;20520;-67
2021/12/01 11:43:35;;;;;;;0.57;0.47;;;20.00;40.00;;;;;;4999116;28;20453;-67
2021/12/01 11:46:02;;;;;;;0.70;0.60;;;20.00;40.00;;;;;;4998119;28;20424;-65
2021/12/01 11:48:31;;;;;;;0.60;0.53;;;20.00;39.90;;;;;;5001974;28;20950;-65
2021/12/01 11:51:03;;;;;;;0.60;0.50;;;20.00;40.00;;;;;;5005140;28;20458;-65
2021/12/01 11:53:36;;;;;;;0.60;0.50;;;20.00;40.00;;;;;;5000799;28;20535;-66
2021/12/01 11:56:26;;;;;;;0.60;0.50;;;20.00;40.00;;;;;;5000350;28;20437;-66
2021/12/01 11:59:14;;;;;;;0.70;0.60;;;20.00;40.00;;;;;;5004041;28;20888;-66
2021/12/01 12:01:44;;;;;;;0.60;0.50;;;20.00;40.00;;;;;;4985865;28;20459;-66
2021/12/01 12:04:13;;;;;;;0.70;0.50;;;19.90;39.90;;;;;;5002967;28;20463;-71
2021/12/01 12:06:58;;;;;;;0.63;0.50;;;19.90;39.80;;;;;;5004417;28;20419;-72
2021/12/01 12:09:26;;;;;;;0.70;0.50;;;19.90;39.90;;;;;;4999361;28;20523;-73
2021/12/01 12:12:17;;;;;;;0.60;0.60;;;19.90;39.90;;;;;;5001651;28;20431;-72
2021/12/01 12:14:45;;;;;;;0.60;0.50;;;19.90;39.90;;;;;;4998119;28;20976;-72
2021/12/01 12:17:14;;;;;;;0.80;0.50;;;19.90;39.90;;;;;;5001658;28;20474;-71
2021/12/01 12:19:46;;;;;;;0.60;0.50;;;19.90;39.90;;;;;;5000746;28;21011;-71
2021/12/01 12:22:13;;;;;;;0.73;0.53;;;19.90;39.90;;;;;;4999827;28;20507;-72
2021/12/01 12:24:56;;;;;;;0.60;0.50;;;19.90;39.90;;;;;;5002632;28;20911;-73
2021/12/01 12:27:41;;;;;;;0.70;0.50;;;19.90;39.90;;;;;;4996377;28;20446;-73
2021/12/01 12:30:15;;;;;;;0.60;0.50;;;19.90;40.00;;;;;;5000338;28;20456;-72
2021/12/01 12:32:43;;;;;;;0.60;0.60;;;19.90;40.00;;;;;;4995865;28;21035;-73
2021/12/01 12:35:14;;;;;;;0.67;0.60;;;19.90;40.00;;;;;;5004458;28;20446;-73
2021/12/01 12:37:42;;;;;;;0.80;0.60;;;19.90;40.00;;;;;;4997537;28;20442;-73
2021/12/01 12:40:22;;;;;;;0.70;0.60;;;19.90;40.00;;;;;;5002302;28;21079;-72
2021/12/01 12:43:11;;;;;;;0.90;0.60;;;19.90;40.00;;;;;;4998547;28;21087;-72
2021/12/01 12:45:58;;;;;;;0.60;0.50;;;19.90;40.10;;;;;;4991133;28;20445;-73
2021/12/01 12:48:29;;;;;;;0.70;0.60;;;19.90;40.10;;;;;;4996026;28;20431;-73
2021/12/01 12:51:13;;;;;;;0.60;0.50;;;19.90;40.90;;;;;;4998742;28;20424;-72
2021/12/01 12:54:10;;;;;;;0.60;0.50;;;19.90;40.10;;;;;;4999668;28;20463;-73
2021/12/01 12:56:37;;;;;;;0.73;0.60;;;19.90;40.10;;;;;;4999137;28;20425;-72
2021/12/01 12:59:22;;;;;;;0.80;0.57;;;19.90;40.10;;;;;;4983552;28;20466;-72
2021/12/01 13:01:51;;;;;;;0.80;0.60;;;19.90;40.10;;;;;;4998912;28;21227;-72